Time;durP1;ratioP1;P1;durP2;ratioP2;P2;SDS_P1;SDS_P2;PMS_P1;PMS_P2;Temp;Humidity;BMP_temperature;BMP_pressure;BME280_temperature;BME280_humidity;BME280_pressure;Samples;Min_cycle;Max_cycle;Signal;HPM_P1;HPM_P2
2022/08/28 00:01:45;;;;;;;4.30;2.33;;;;;;;;;;5047278;28;20475;-80
2022/08/28 00:04:10;;;;;;;5.18;2.40;;;;;;;;;;5053215;28;20017;-74
2022/08/28 00:06:36;;;;;;;5.68;2.13;;;;;;;;;;5051101;28;20025;-74
2022/08/28 00:09:01;;;;;;;5.38;2.67;;;;;;;;;;5051173;28;20020;-75
2022/08/28 00:11:27;;;;;;;5.60;2.85;;;;;;;;;;5050574;28;20433;-74
2022/08/28 00:13:52;;;;;;;5.60;2.30;;;;;;;;;;5047500;28;20393;-75
2022/08/28 00:16:18;;;;;;;5.65;2.15;;;;;;;;;;5049959;28;20029;-76
2022/08/28 00:18:44;;;;;;;5.07;2.35;;;;;;;;;;5044275;28;20032;-78
2022/08/28 00:21:10;;;;;;;5.70;2.38;;;;;;;;;;5055939;28;20120;-79
2022/08/28 00:23:37;;;;;;;6.47;2.55;;;;;;;;;;5055924;28;20033;-75
2022/08/28 00:26:03;;;;;;;4.68;2.33;;;;;;;;;;5051579;28;20031;-78
2022/08/28 00:28:31;;;;;;;5.75;2.70;;;;;;;;;;5050758;28;20483;-76
2022/08/28 00:30:57;;;;;;;6.53;2.92;;;;;;;;;;5039158;28;20032;-80
2022/08/28 00:33:26;;;;;;;6.93;3.08;;;;;;;;;;5055568;28;20048;-79
2022/08/28 00:35:53;;;;;;;4.80;2.13;;;;;;;;;;5054811;28;20106;-79
2022/08/28 00:38:21;;;;;;;6.88;2.65;;;;;;;;;;5054354;28;20035;-78
2022/08/28 00:40:49;;;;;;;6.07;2.60;;;;;;;;;;5037518;28;20485;-78
2022/08/28 00:43:33;;;;;;;5.90;2.70;;;;;;;;;;5052270;28;20112;-80
2022/08/28 00:46:01;;;;;;;6.25;2.60;;;;;;;;;;5053677;28;20029;-75
2022/08/28 00:48:26;;;;;;;6.65;2.90;;;;;;;;;;5053456;28;20021;-79
2022/08/28 00:53:36;;;;;;;8.07;2.40;;;;;;;;;;5055458;28;20028;-80
2022/08/28 00:56:05;;;;;;;6.72;2.78;;;;;;;;;;5043397;28;20381;-74
2022/08/28 00:58:31;;;;;;;8.45;2.78;;;;;;;;;;5055371;28;20029;-79
2022/08/28 01:00:57;;;;;;;5.20;2.53;;;;;;;;;;5049976;28;20037;-74
2022/08/28 01:03:22;;;;;;;5.63;2.45;;;;;;;;;;5052378;28;20397;-75
2022/08/28 01:05:48;;;;;;;8.43;2.60;;;;;;;;;;5049000;28;20017;-74
2022/08/28 01:08:15;;;;;;;5.78;2.38;;;;;;;;;;5054059;28;20443;-75
2022/08/28 01:10:44;;;;;;;5.28;2.80;;;;;;;;;;5055222;28;20032;-75
2022/08/28 01:13:10;;;;;;;5.85;2.60;;;;;;;;;;5055117;28;20017;-78
2022/08/28 01:15:37;;;;;;;5.38;2.58;;;;;;;;;;5053617;28;20035;-74
2022/08/28 01:18:07;;;;;;;6.32;2.97;;;;;;;;;;5056120;28;20082;-75
2022/08/28 01:20:39;;;;;;;8.23;2.50;;;;;;;;;;5054334;28;20397;-74
2022/08/28 01:23:07;;;;;;;8.77;3.08;;;;;;;;;;5052990;28;20024;-81
2022/08/28 01:25:36;;;;;;;4.18;2.42;;;;;;;;;;5050976;28;20126;-75
2022/08/28 01:28:05;;;;;;;5.00;2.60;;;;;;;;;;5054361;28;20032;-74
2022/08/28 01:30:31;;;;;;;6.15;2.70;;;;;;;;;;5045715;28;20040;-80
2022/08/28 01:32:57;;;;;;;5.78;2.55;;;;;;;;;;5051686;28;20429;-75
2022/08/28 01:35:30;;;;;;;6.35;2.50;;;;;;;;;;5047699;28;20025;-80
2022/08/28 01:37:56;;;;;;;5.47;2.78;;;;;;;;;;5052458;28;20021;-80
2022/08/28 01:40:29;;;;;;;6.45;2.40;;;;;;;;;;5044311;28;20025;-74
2022/08/28 01:42:54;;;;;;;6.57;2.72;;;;;;;;;;5039678;28;20462;-78
2022/08/28 01:45:21;;;;;;;8.65;2.60;;;;;;;;;;5053339;28;20107;-74
2022/08/28 01:47:47;;;;;;;6.95;2.75;;;;;;;;;;5053247;28;20039;-80
2022/08/28 01:50:17;;;;;;;5.20;2.35;;;;;;;;;;5054523;28;20025;-79
2022/08/28 01:52:42;;;;;;;6.10;2.50;;;;;;;;;;5045338;28;20031;-79
2022/08/28 01:55:10;;;;;;;6.13;2.38;;;;;;;;;;5036236;28;20029;-79
2022/08/28 01:57:42;;;;;;;6.60;2.30;;;;;;;;;;5052902;28;20535;-81
2022/08/28 02:00:09;;;;;;;5.60;2.60;;;;;;;;;;5051014;28;20381;-80
2022/08/28 02:02:35;;;;;;;5.90;2.47;;;;;;;;;;5050090;28;20028;-76
2022/08/28 02:05:00;;;;;;;5.88;2.20;;;;;;;;;;5042298;28;20021;-74
2022/08/28 02:07:25;;;;;;;5.60;2.15;;;;;;;;;;5052662;28;20021;-78
2022/08/28 02:09:51;;;;;;;4.88;2.28;;;;;;;;;;5046325;28;20556;-74
2022/08/28 02:12:17;;;;;;;5.72;2.40;;;;;;;;;;5047182;28;20030;-78
2022/08/28 02:14:42;;;;;;;7.03;3.17;;;;;;;;;;5049642;28;20052;-75
2022/08/28 02:17:07;;;;;;;5.90;2.55;;;;;;;;;;5051675;28;20021;-74
2022/08/28 02:19:33;;;;;;;4.93;2.38;;;;;;;;;;5053444;28;20583;-73
2022/08/28 02:21:58;;;;;;;6.50;2.38;;;;;;;;;;5049771;28;20021;-78
2022/08/28 02:24:24;;;;;;;6.05;2.28;;;;;;;;;;5052279;28;20037;-79
2022/08/28 02:26:49;;;;;;;4.95;2.38;;;;;;;;;;5052372;28;20029;-75
2022/08/28 02:29:15;;;;;;;4.95;2.47;;;;;;;;;;5053513;28;20025;-78
2022/08/28 02:31:40;;;;;;;4.80;2.28;;;;;;;;;;5052357;28;20120;-81
2022/08/28 02:34:06;;;;;;;5.10;2.53;;;;;;;;;;5050577;28;20132;-80
2022/08/28 02:36:32;;;;;;;5.97;2.40;;;;;;;;;;5051341;28;20032;-74
2022/08/28 02:38:58;;;;;;;5.85;2.38;;;;;;;;;;5045672;28;20112;-75
2022/08/28 02:41:24;;;;;;;5.22;2.45;;;;;;;;;;5046451;28;20120;-78
2022/08/28 02:43:49;;;;;;;4.90;2.35;;;;;;;;;;5035597;28;20032;-80
2022/08/28 02:46:15;;;;;;;5.25;2.30;;;;;;;;;;5050992;28;20017;-80
2022/08/28 02:48:41;;;;;;;5.10;2.45;;;;;;;;;;5044936;28;20025;-74
2022/08/28 02:51:10;;;;;;;5.35;2.60;;;;;;;;;;5040242;28;20212;-79
2022/08/28 02:53:35;;;;;;;7.45;2.60;;;;;;;;;;5051960;28;20025;-79
2022/08/28 02:56:03;;;;;;;4.32;2.28;;;;;;;;;;5051925;28;20099;-79
2022/08/28 02:58:31;;;;;;;4.70;2.08;;;;;;;;;;5053257;28;20035;-78
2022/08/28 03:00:59;;;;;;;7.65;2.42;;;;;;;;;;5051567;28;20017;-75
2022/08/28 03:03:24;;;;;;;5.25;2.22;;;;;;;;;;5047442;28;20121;-80
2022/08/28 03:05:50;;;;;;;5.57;2.50;;;;;;;;;;5052074;28;20052;-78
2022/08/28 03:08:15;;;;;;;6.93;2.17;;;;;;;;;;5051645;28;20032;-75
2022/08/28 03:10:40;;;;;;;5.57;1.95;;;;;;;;;;5044561;28;20030;-74
2022/08/28 03:13:06;;;;;;;6.80;2.45;;;;;;;;;;5051196;28;20397;-81
2022/08/28 03:15:32;;;;;;;6.55;2.28;;;;;;;;;;5046064;28;20036;-78
2022/08/28 03:17:57;;;;;;;5.28;2.30;;;;;;;;;;5051439;28;20089;-80
2022/08/28 03:20:24;;;;;;;5.57;2.47;;;;;;;;;;5051380;28;20021;-75
2022/08/28 03:25:34;;;;;;;6.13;2.45;;;;;;;;;;5044735;28;20114;-79
2022/08/28 03:28:00;;;;;;;6.53;2.47;;;;;;;;;;5051330;28;20469;-75
2022/08/28 03:30:26;;;;;;;5.00;2.13;;;;;;;;;;5051745;28;20017;-78
2022/08/28 03:32:52;;;;;;;4.63;2.28;;;;;;;;;;5046470;28;20414;-74
2022/08/28 03:35:19;;;;;;;4.13;2.30;;;;;;;;;;5042346;28;20033;-74
2022/08/28 03:37:44;;;;;;;5.97;3.08;;;;;;;;;;5051368;28;20024;-78
2022/08/28 03:40:10;;;;;;;4.68;2.10;;;;;;;;;;5038890;28;20075;-79
2022/08/28 03:42:36;;;;;;;6.90;2.38;;;;;;;;;;5049659;28;20037;-75
2022/08/28 03:45:02;;;;;;;5.22;2.38;;;;;;;;;;5050064;28;20691;-75
2022/08/28 03:47:27;;;;;;;5.65;2.33;;;;;;;;;;5052686;28;20035;-76
2022/08/28 03:49:54;;;;;;;5.93;2.30;;;;;;;;;;5052387;28;20025;-75
2022/08/28 03:52:19;;;;;;;5.30;2.20;;;;;;;;;;5042810;28;20413;-79
2022/08/28 03:54:45;;;;;;;6.15;2.53;;;;;;;;;;5048051;28;20112;-74
2022/08/28 03:57:10;;;;;;;5.25;2.53;;;;;;;;;;5051836;28;20029;-80
2022/08/28 03:59:36;;;;;;;5.90;2.50;;;;;;;;;;5047343;28;20260;-76
2022/08/28 04:02:01;;;;;;;6.15;2.70;;;;;;;;;;5052464;28;20047;-80
2022/08/28 04:04:27;;;;;;;6.22;2.22;;;;;;;;;;5050540;28;20476;-79
2022/08/28 04:06:52;;;;;;;3.70;2.10;;;;;;;;;;5044746;28;20021;-80
2022/08/28 04:09:17;;;;;;;6.45;2.35;;;;;;;;;;5049615;28;20041;-74
2022/08/28 04:11:43;;;;;;;5.30;2.28;;;;;;;;;;5046258;28;20449;-78
2022/08/28 04:14:09;;;;;;;6.20;2.58;;;;;;;;;;5050136;28;20415;-78
2022/08/28 04:16:35;;;;;;;6.90;2.22;;;;;;;;;;5052159;28;20401;-73
2022/08/28 04:19:00;;;;;;;5.70;2.65;;;;;;;;;;5051610;28;20025;-75
2022/08/28 04:21:26;;;;;;;6.28;3.00;;;;;;;;;;5050328;28;20562;-78
2022/08/28 04:23:52;;;;;;;6.20;2.50;;;;;;;;;;5051818;28;20028;-80
2022/08/28 04:26:20;;;;;;;3.63;2.25;;;;;;;;;;5041970;28;20519;-79
2022/08/28 04:28:47;;;;;;;4.72;2.75;;;;;;;;;;5051998;28;20566;-74
2022/08/28 04:31:13;;;;;;;5.07;2.30;;;;;;;;;;5051022;28;20497;-78
2022/08/28 04:33:40;;;;;;;5.60;2.22;;;;;;;;;;5044004;28;20042;-80
2022/08/28 04:36:14;;;;;;;5.25;2.40;;;;;;;;;;5045853;28;20037;-78
2022/08/28 04:38:41;;;;;;;6.15;2.28;;;;;;;;;;5051148;28;20025;-78
2022/08/28 04:41:10;;;;;;;5.80;2.55;;;;;;;;;;5048107;28;20485;-78
2022/08/28 04:43:35;;;;;;;5.00;2.17;;;;;;;;;;5054625;28;20036;-80
2022/08/28 04:46:13;;;;;;;4.90;2.22;;;;;;;;;;5047027;28;20029;-80
2022/08/28 04:48:39;;;;;;;5.78;2.20;;;;;;;;;;5054320;28;20047;-78
2022/08/28 04:51:08;;;;;;;4.03;2.42;;;;;;;;;;5053602;28;20028;-79
2022/08/28 04:53:35;;;;;;;5.85;2.00;;;;;;;;;;5054279;28;20469;-74
2022/08/28 04:56:03;;;;;;;6.20;2.67;;;;;;;;;;5053425;28;20428;-73
2022/08/28 04:58:29;;;;;;;5.97;2.28;;;;;;;;;;5043228;28;20100;-75
2022/08/28 05:00:55;;;;;;;4.75;2.15;;;;;;;;;;5054715;28;20473;-80
2022/08/28 05:03:22;;;;;;;4.75;2.17;;;;;;;;;;5055463;28;20028;-78
2022/08/28 05:05:50;;;;;;;7.05;2.55;;;;;;;;;;5053831;28;20122;-80
2022/08/28 05:08:18;;;;;;;4.55;2.10;;;;;;;;;;5046377;28;20104;-77
2022/08/28 05:10:45;;;;;;;5.22;2.45;;;;;;;;;;5053187;28;20033;-80
2022/08/28 05:13:14;;;;;;;5.50;2.28;;;;;;;;;;5053272;28;20043;-74
2022/08/28 05:15:43;;;;;;;5.70;2.35;;;;;;;;;;5048991;28;20021;-79
2022/08/28 05:18:10;;;;;;;4.05;2.13;;;;;;;;;;5050907;28;20031;-75
2022/08/28 05:20:37;;;;;;;4.57;2.35;;;;;;;;;;5054903;28;20024;-80
2022/08/28 05:23:04;;;;;;;5.40;1.95;;;;;;;;;;5053519;28;20386;-75
2022/08/28 05:25:33;;;;;;;4.28;1.90;;;;;;;;;;5037440;28;20454;-78
2022/08/28 05:27:59;;;;;;;7.18;2.67;;;;;;;;;;5053572;28;20021;-76
2022/08/28 05:30:24;;;;;;;6.30;2.25;;;;;;;;;;5040707;28;20025;-75
2022/08/28 05:32:50;;;;;;;4.95;2.40;;;;;;;;;;5054081;28;20036;-73
2022/08/28 05:35:15;;;;;;;6.03;2.10;;;;;;;;;;5041504;28;20481;-81
2022/08/28 05:37:40;;;;;;;5.80;2.15;;;;;;;;;;5046373;28;20104;-79
2022/08/28 05:40:08;;;;;;;6.80;2.60;;;;;;;;;;5042840;28;20485;-75
2022/08/28 05:42:33;;;;;;;5.55;2.10;;;;;;;;;;5046985;28;20040;-81
2022/08/28 05:44:59;;;;;;;4.03;2.13;;;;;;;;;;5037887;28;20025;-74
2022/08/28 05:47:24;;;;;;;5.68;2.40;;;;;;;;;;5054294;28;20073;-78
2022/08/28 05:49:50;;;;;;;4.07;1.92;;;;;;;;;;5049461;28;20125;-75
2022/08/28 05:52:15;;;;;;;7.28;2.30;;;;;;;;;;5054444;28;20031;-75
2022/08/28 05:54:41;;;;;;;4.28;2.20;;;;;;;;;;5048816;28;20121;-76
2022/08/28 05:57:07;;;;;;;6.60;2.53;;;;;;;;;;5054136;28;20051;-78
2022/08/28 05:59:32;;;;;;;6.40;2.40;;;;;;;;;;5052902;28;20116;-75
2022/08/28 06:01:58;;;;;;;7.45;2.10;;;;;;;;;;5054180;28;20116;-80
2022/08/28 06:04:25;;;;;;;4.28;2.20;;;;;;;;;;5053628;28;20063;-80
2022/08/28 06:06:51;;;;;;;4.93;2.15;;;;;;;;;;5052252;28;20025;-79
2022/08/28 06:09:25;;;;;;;5.43;2.38;;;;;;;;;;5047017;28;20393;-79
2022/08/28 06:11:54;;;;;;;5.82;2.38;;;;;;;;;;5036499;28;20037;-79
2022/08/28 06:14:19;;;;;;;3.75;1.85;;;;;;;;;;5052211;28;20012;-78
2022/08/28 06:16:48;;;;;;;5.47;1.90;;;;;;;;;;5053973;28;20033;-78
2022/08/28 06:19:15;;;;;;;4.82;2.28;;;;;;;;;;5047030;28;20075;-75
2022/08/28 06:21:41;;;;;;;5.65;2.40;;;;;;;;;;5034067;28;20029;-80
2022/08/28 06:24:09;;;;;;;7.00;2.53;;;;;;;;;;5052788;28;20123;-79
2022/08/28 06:26:35;;;;;;;5.43;2.25;;;;;;;;;;5052294;28;20440;-80
2022/08/28 06:29:02;;;;;;;4.65;2.20;;;;;;;;;;5048664;28;20117;-81
2022/08/28 06:31:28;;;;;;;6.47;2.38;;;;;;;;;;5043012;28;20033;-74
2022/08/28 06:33:56;;;;;;;5.95;2.10;;;;;;;;;;5052920;28;20037;-79
2022/08/28 06:36:23;;;;;;;6.40;2.30;;;;;;;;;;5052078;28;20021;-76
2022/08/28 06:38:48;;;;;;;5.10;2.35;;;;;;;;;;5049630;28;20028;-76
2022/08/28 06:41:14;;;;;;;5.25;2.15;;;;;;;;;;5051697;28;20021;-80
2022/08/28 06:43:40;;;;;;;6.97;2.50;;;;;;;;;;5051076;28;20477;-74
2022/08/28 06:46:05;;;;;;;5.55;2.72;;;;;;;;;;5052243;28;20067;-73
2022/08/28 06:48:30;;;;;;;5.50;2.58;;;;;;;;;;5053129;28;20469;-80
2022/08/28 06:50:58;;;;;;;3.60;2.05;;;;;;;;;;5051549;28;20056;-75
2022/08/28 06:53:26;;;;;;;6.82;2.60;;;;;;;;;;5052182;28;20047;-79
2022/08/28 06:56:19;;;;;;;6.88;2.40;;;;;;;;;;5054542;28;20116;-76
2022/08/28 06:58:46;;;;;;;7.57;2.30;;;;;;;;;;5047779;28;20037;-79
2022/08/28 07:01:21;;;;;;;5.53;1.98;;;;;;;;;;5040135;28;20025;-80
2022/08/28 07:03:48;;;;;;;6.15;1.95;;;;;;;;;;5051974;28;20017;-73
2022/08/28 07:06:14;;;;;;;6.63;1.92;;;;;;;;;;5052113;28;20116;-76
2022/08/28 07:08:42;;;;;;;7.30;1.80;;;;;;;;;;5047743;28;20079;-80
2022/08/28 07:11:30;;;;;;;5.53;1.80;;;;;;;;;;5051059;28;20079;-80
2022/08/28 07:13:56;;;;;;;6.20;2.05;;;;;;;;;;5039572;28;20030;-80
2022/08/28 07:16:25;;;;;;;6.05;1.75;;;;;;;;;;5046592;28;20017;-73
2022/08/28 07:18:51;;;;;;;4.65;1.60;;;;;;;;;;5051422;28;20536;-78
2022/08/28 07:21:17;;;;;;;5.47;1.88;;;;;;;;;;5051684;28;20025;-80
2022/08/28 07:23:43;;;;;;;5.72;1.65;;;;;;;;;;5052031;28;20176;-79
2022/08/28 07:26:15;;;;;;;4.40;1.60;;;;;;;;;;5045631;28;20036;-79
2022/08/28 07:28:41;;;;;;;4.20;1.37;;;;;;;;;;5051403;28;20469;-80
2022/08/28 07:31:16;;;;;;;6.72;1.70;;;;;;;;;;5049370;28;20028;-80
2022/08/28 07:33:42;;;;;;;6.60;1.60;;;;;;;;;;5051157;28;20037;-75
2022/08/28 07:36:19;;;;;;;5.00;1.20;;;;;;;;;;5046798;28;20466;-75
2022/08/28 07:38:46;;;;;;;4.47;1.25;;;;;;;;;;5052494;28;20408;-79
2022/08/28 07:41:20;;;;;;;4.55;1.27;;;;;;;;;;5050440;28;20017;-81
2022/08/28 07:46:31;;;;;;;3.67;1.55;;;;;;;;;;5041531;28;20040;-79
2022/08/28 07:49:00;;;;;;;6.63;1.60;;;;;;;;;;5045542;28;20071;-79
2022/08/28 07:51:26;;;;;;;3.92;1.10;;;;;;;;;;5029424;28;20035;-73
2022/08/28 07:53:53;;;;;;;4.45;1.20;;;;;;;;;;5045819;28;20029;-75
2022/08/28 07:56:19;;;;;;;3.45;1.10;;;;;;;;;;5045481;28;20028;-80
2022/08/28 07:58:45;;;;;;;6.43;1.60;;;;;;;;;;5049317;28;20473;-78
2022/08/28 08:01:10;;;;;;;3.22;1.00;;;;;;;;;;5051138;28;20333;-75
2022/08/28 08:03:36;;;;;;;4.38;1.20;;;;;;;;;;5052494;28;20053;-79
2022/08/28 08:06:05;;;;;;;3.25;1.10;;;;;;;;;;5046817;28;20025;-79
2022/08/28 08:08:32;;;;;;;3.67;1.27;;;;;;;;;;5034402;28;20049;-73
2022/08/28 08:11:04;;;;;;;4.78;1.17;;;;;;;;;;5048149;28;20590;-80
2022/08/28 08:13:31;;;;;;;4.90;1.17;;;;;;;;;;5047045;28;20029;-75
2022/08/28 08:16:09;;;;;;;1.67;0.90;;;;;;;;;;5049497;28;20067;-81
2022/08/28 08:18:36;;;;;;;4.28;1.25;;;;;;;;;;5054809;28;20039;-81
2022/08/28 08:21:04;;;;;;;5.53;1.10;;;;;;;;;;5043610;28;20028;-80
2022/08/28 08:23:29;;;;;;;6.22;1.10;;;;;;;;;;5053151;28;20068;-81
2022/08/28 08:26:02;;;;;;;5.40;1.35;;;;;;;;;;5053506;28;20029;-80
2022/08/28 08:28:29;;;;;;;4.13;1.10;;;;;;;;;;5054974;28;20036;-76
2022/08/28 08:31:17;;;;;;;3.10;0.95;;;;;;;;;;5052944;28;20060;-75
2022/08/28 08:33:45;;;;;;;2.85;1.10;;;;;;;;;;5054289;28;20065;-78
2022/08/28 08:36:13;;;;;;;3.05;0.98;;;;;;;;;;5051876;28;20080;-75
2022/08/28 08:38:39;;;;;;;4.78;0.98;;;;;;;;;;5054341;28;20032;-74
2022/08/28 08:41:22;;;;;;;2.92;0.90;;;;;;;;;;5043580;28;20366;-80
2022/08/28 08:44:13;;;;;;;3.05;0.90;;;;;;;;;;5051597;28;20063;-75
2022/08/28 08:46:50;;;;;;;3.45;1.30;;;;;;;;;;5053737;28;20068;-80
2022/08/28 08:49:20;;;;;;;2.72;0.90;;;;;;;;;;5054271;28;20039;-79
2022/08/28 08:51:49;;;;;;;6.18;1.50;;;;;;;;;;5054204;28;20025;-75
2022/08/28 08:54:18;;;;;;;4.47;1.70;;;;;;;;;;5045108;28;20393;-80
2022/08/28 08:56:46;;;;;;;3.38;0.98;;;;;;;;;;5051630;28;20526;-75
2022/08/28 08:59:24;;;;;;;3.42;0.95;;;;;;;;;;5040923;28;20020;-75
2022/08/28 09:02:13;;;;;;;5.78;1.20;;;;;;;;;;5054120;28;20023;-76
2022/08/28 09:05:06;;;;;;;3.08;1.10;;;;;;;;;;5053505;28;20021;-76
2022/08/28 09:07:55;;;;;;;3.55;0.73;;;;;;;;;;5054096;28;20123;-76
2022/08/28 09:10:22;;;;;;;2.85;0.90;;;;;;;;;;5050457;28;20048;-81
2022/08/28 09:12:58;;;;;;;3.80;0.90;;;;;;;;;;5043812;28;20027;-76
2022/08/28 09:15:30;;;;;;;5.47;1.13;;;;;;;;;;5053235;28;20067;-74
2022/08/28 09:18:21;;;;;;;2.95;1.35;;;;;;;;;;5052917;28;20020;-80
2022/08/28 09:20:52;;;;;;;5.28;1.20;;;;;;;;;;5042541;28;20095;-76
2022/08/28 09:23:17;;;;;;;4.88;1.00;;;;;;;;;;5051807;28;20044;-75
2022/08/28 09:25:43;;;;;;;4.72;0.90;;;;;;;;;;5050714;28;20033;-75
2022/08/28 09:28:10;;;;;;;2.47;1.00;;;;;;;;;;5053156;28;20037;-81
2022/08/28 09:30:36;;;;;;;3.28;0.90;;;;;;;;;;5049031;28;20401;-76
2022/08/28 09:33:02;;;;;;;4.38;1.20;;;;;;;;;;5054323;28;20505;-81
2022/08/28 09:35:34;;;;;;;4.25;1.00;;;;;;;;;;5045534;28;20042;-75
2022/08/28 09:38:19;;;;;;;2.63;1.10;;;;;;;;;;5039370;28;20020;-75
2022/08/28 09:43:30;;;;;;;4.30;0.80;;;;;;;;;;5040119;28;20401;-81
2022/08/28 09:46:27;;;;;;;5.18;1.00;;;;;;;;;;5053444;28;20031;-81
2022/08/28 09:49:07;;;;;;;3.72;1.00;;;;;;;;;;5044167;28;20466;-74
2022/08/28 09:51:37;;;;;;;3.00;0.98;;;;;;;;;;5046008;28;20075;-81
2022/08/28 09:54:11;;;;;;;3.00;0.90;;;;;;;;;;5053659;28;20040;-81
2022/08/28 09:56:41;;;;;;;2.40;0.90;;;;;;;;;;5054339;28;20118;-80
2022/08/28 09:59:16;;;;;;;2.40;0.75;;;;;;;;;;5054163;28;20063;-81
2022/08/28 10:02:00;;;;;;;1.67;0.80;;;;;;;;;;5047176;28;20404;-81
2022/08/28 10:04:31;;;;;;;2.50;0.90;;;;;;;;;;5053471;28;20485;-75
2022/08/28 10:07:05;;;;;;;3.22;0.90;;;;;;;;;;5040446;28;20107;-76
2022/08/28 10:09:55;;;;;;;5.22;1.02;;;;;;;;;;5050621;28;20504;-75
2022/08/28 10:12:58;;;;;;;3.50;0.75;;;;;;;;;;5050764;28;20028;-81
2022/08/28 10:15:30;;;;;;;3.78;1.00;;;;;;;;;;5045110;28;20037;-81
2022/08/28 10:18:11;;;;;;;2.83;0.80;;;;;;;;;;5047790;28;20401;-75
2022/08/28 10:20:36;;;;;;;4.68;1.00;;;;;;;;;;5052373;28;20485;-77
2022/08/28 10:23:26;;;;;;;3.03;0.80;;;;;;;;;;5053804;28;20044;-76
2022/08/28 10:26:17;;;;;;;4.95;0.88;;;;;;;;;;5048467;28;20025;-76
2022/08/28 10:29:14;;;;;;;2.95;1.10;;;;;;;;;;5052427;28;20025;-76
2022/08/28 10:31:57;;;;;;;2.28;0.88;;;;;;;;;;5047639;28;20090;-81
2022/08/28 10:34:41;;;;;;;2.08;0.70;;;;;;;;;;5037681;28;20070;-76
2022/08/28 10:37:43;;;;;;;3.50;0.90;;;;;;;;;;5043827;28;20021;-81
2022/08/28 10:40:16;;;;;;;2.42;0.80;;;;;;;;;;5045194;28;20036;-76
2022/08/28 10:42:55;;;;;;;3.83;0.90;;;;;;;;;;5050313;28;20025;-81
2022/08/28 10:45:24;;;;;;;2.40;0.75;;;;;;;;;;5052156;28;20477;-81
2022/08/28 10:47:59;;;;;;;1.75;0.80;;;;;;;;;;5053423;28;20473;-81
2022/08/28 10:50:37;;;;;;;2.92;0.88;;;;;;;;;;5034178;28;20033;-81
2022/08/28 10:53:08;;;;;;;3.10;0.70;;;;;;;;;;5043990;28;20082;-81
2022/08/28 10:55:40;;;;;;;1.40;0.55;;;;;;;;;;5042575;28;20025;-75
2022/08/28 10:58:08;;;;;;;3.38;0.98;;;;;;;;;;5047861;28;20805;-80
2022/08/28 11:00:35;;;;;;;3.38;0.93;;;;;;;;;;5047679;28;20039;-81
2022/08/28 11:03:09;;;;;;;4.38;0.90;;;;;;;;;;5051960;28;20029;-82
2022/08/28 11:06:00;;;;;;;2.90;0.90;;;;;;;;;;5044139;28;20033;-81
2022/08/28 11:08:38;;;;;;;2.75;0.90;;;;;;;;;;5048769;28;20044;-76
2022/08/28 11:11:06;;;;;;;3.13;1.20;;;;;;;;;;5045043;28;20025;-75
2022/08/28 11:13:53;;;;;;;1.90;0.80;;;;;;;;;;5052700;28;20029;-76
2022/08/28 11:16:28;;;;;;;1.85;0.93;;;;;;;;;;5048720;28;20503;-76
2022/08/28 11:19:08;;;;;;;1.92;0.80;;;;;;;;;;5051637;28;20025;-82
2022/08/28 11:21:46;;;;;;;1.63;0.60;;;;;;;;;;5047412;28;20036;-75
2022/08/28 11:24:32;;;;;;;1.80;0.60;;;;;;;;;;5051188;28;20021;-81
2022/08/28 11:27:29;;;;;;;4.63;0.90;;;;;;;;;;5038461;28;20103;-76
2022/08/28 11:30:10;;;;;;;3.83;0.80;;;;;;;;;;5050987;28;20048;-81
2022/08/28 11:32:53;;;;;;;1.45;0.80;;;;;;;;;;5051339;28;20053;-75
2022/08/28 11:35:28;;;;;;;4.18;0.70;;;;;;;;;;5043981;28;20044;-81
2022/08/28 11:37:55;;;;;;;2.25;0.90;;;;;;;;;;5044787;28;20033;-74
2022/08/28 11:40:30;;;;;;;2.80;0.80;;;;;;;;;;5046411;28;20021;-81
2022/08/28 11:43:14;;;;;;;1.92;0.80;;;;;;;;;;5051054;28;20036;-81
2022/08/28 11:45:42;;;;;;;2.33;1.10;;;;;;;;;;5039098;28;20074;-81
2022/08/28 11:48:38;;;;;;;1.75;0.70;;;;;;;;;;5047330;28;20025;-81
2022/08/28 11:51:05;;;;;;;2.83;0.90;;;;;;;;;;5055802;28;20389;-74
2022/08/28 11:54:09;;;;;;;2.60;0.77;;;;;;;;;;5054031;28;20452;-74
2022/08/28 11:56:46;;;;;;;3.03;0.90;;;;;;;;;;5054078;28;20060;-80
2022/08/28 11:59:35;;;;;;;2.00;0.88;;;;;;;;;;5037441;28;20392;-82
2022/08/28 12:02:34;;;;;;;2.30;0.75;;;;;;;;;;5055637;28;20052;-75
2022/08/28 12:05:00;;;;;;;4.22;0.95;;;;;;;;;;5054802;28;20112;-81
2022/08/28 12:07:33;;;;;;;2.33;0.80;;;;;;;;;;5055817;28;20063;-76
2022/08/28 12:09:59;;;;;;;1.58;0.77;;;;;;;;;;5051414;28;20033;-77
2022/08/28 12:12:33;;;;;;;2.42;0.88;;;;;;;;;;5055186;28;20048;-81
2022/08/28 12:15:02;;;;;;;1.92;0.80;;;;;;;;;;5056003;28;20377;-76
2022/08/28 12:17:45;;;;;;;1.60;0.80;;;;;;;;;;5049753;28;20037;-81
2022/08/28 12:20:18;;;;;;;3.17;0.73;;;;;;;;;;5054552;28;20053;-76
2022/08/28 12:22:51;;;;;;;2.85;0.88;;;;;;;;;;5054933;28;20033;-81
2022/08/28 12:25:34;;;;;;;1.88;0.65;;;;;;;;;;5054268;28;20036;-76
2022/08/28 12:28:17;;;;;;;2.67;0.83;;;;;;;;;;5053832;28;20067;-81
2022/08/28 12:31:06;;;;;;;2.45;0.80;;;;;;;;;;5054744;28;20691;-75
2022/08/28 12:33:46;;;;;;;1.73;0.60;;;;;;;;;;5044818;28;20049;-75
2022/08/28 12:36:15;;;;;;;2.28;0.80;;;;;;;;;;5046240;28;20029;-75
2022/08/28 12:38:48;;;;;;;3.05;0.88;;;;;;;;;;5055227;28;20029;-76
2022/08/28 12:41:15;;;;;;;;;;;;;;;;;;5043465;28;20028;-77
2022/08/28 12:43:46;;;;;;;1.70;0.80;;;;;;;;;;5054577;28;19908;-75
2022/08/28 12:46:19;;;;;;;2.90;0.70;;;;;;;;;;5054484;28;20445;-81
2022/08/28 12:48:52;;;;;;;2.50;0.75;;;;;;;;;;5055187;28;20029;-80
2022/08/28 12:51:24;;;;;;;1.75;0.80;;;;;;;;;;5050592;28;20036;-75
2022/08/28 12:53:54;;;;;;;3.53;1.00;;;;;;;;;;5054856;28;20029;-82
2022/08/28 12:56:22;;;;;;;2.10;0.73;;;;;;;;;;5049103;28;20090;-76
2022/08/28 12:58:47;;;;;;;1.92;0.77;;;;;;;;;;5040623;28;20493;-76
2022/08/28 13:01:22;;;;;;;4.07;0.80;;;;;;;;;;5047305;28;20111;-76
2022/08/28 13:03:50;;;;;;;1.95;0.85;;;;;;;;;;5039490;28;20024;-81
2022/08/28 13:06:28;;;;;;;1.10;0.80;;;;;;;;;;5052527;28;20424;-76
2022/08/28 13:08:59;;;;;;;1.70;0.70;;;;;;;;;;5055166;28;20088;-80
2022/08/28 13:11:25;;;;;;;2.88;0.90;;;;;;;;;;5055193;28;20028;-80
2022/08/28 13:13:51;;;;;;;1.58;0.70;;;;;;;;;;5053705;28;20027;-76
2022/08/28 13:16:38;;;;;;;2.92;1.00;;;;;;;;;;5051319;28;20020;-80
2022/08/28 13:19:04;;;;;;;2.40;0.82;;;;;;;;;;5040954;28;20155;-76
2022/08/28 13:21:36;;;;;;;3.00;0.85;;;;;;;;;;5043090;28;20119;-75
2022/08/28 13:24:20;;;;;;;2.25;0.70;;;;;;;;;;5053182;28;20103;-81
2022/08/28 13:26:46;;;;;;;1.92;0.90;;;;;;;;;;5044981;28;20029;-76
2022/08/28 13:29:20;;;;;;;3.80;0.70;;;;;;;;;;5054897;28;20025;-81
2022/08/28 13:31:58;;;;;;;3.17;0.90;;;;;;;;;;5054653;28;20025;-81
2022/08/28 13:34:32;;;;;;;1.63;0.90;;;;;;;;;;5036697;28;20120;-76
2022/08/28 13:37:00;;;;;;;1.42;0.75;;;;;;;;;;5049323;28;20025;-81
2022/08/28 13:39:27;;;;;;;1.35;0.70;;;;;;;;;;5052800;28;20032;-76
2022/08/28 13:41:59;;;;;;;1.77;0.77;;;;;;;;;;5054847;28;20064;-81
2022/08/28 13:44:31;;;;;;;2.07;0.80;;;;;;;;;;5052224;28;20025;-81
2022/08/28 13:46:58;;;;;;;2.33;0.70;;;;;;;;;;5052988;28;20017;-76
2022/08/28 13:49:26;;;;;;;2.80;1.13;;;;;;;;;;5053184;28;20029;-76
2022/08/28 13:51:53;;;;;;;1.63;0.73;;;;;;;;;;5054540;28;20025;-75
2022/08/28 13:54:19;;;;;;;2.33;0.68;;;;;;;;;;5048692;28;20033;-79
2022/08/28 13:56:44;;;;;;;4.00;0.90;;;;;;;;;;5052956;28;20071;-82
2022/08/28 13:59:10;;;;;;;1.83;0.77;;;;;;;;;;5053163;28;20479;-76
2022/08/28 14:04:39;;;;;;;3.17;1.00;;;;;;;;;;5084161;28;20032;-82
2022/08/28 14:07:06;;;;;;;2.25;0.63;;;;;;;;;;5085678;28;20107;-75
2022/08/28 14:09:32;;;;;;;1.08;0.57;;;;;;;;;;5073608;28;20450;-80
2022/08/28 14:11:58;;;;;;;3.13;0.82;;;;;;;;;;5052822;28;20020;-81
2022/08/28 14:14:23;;;;;;;2.03;0.80;;;;;;;;;;5050235;28;20021;-77
2022/08/28 14:16:53;;;;;;;2.22;0.88;;;;;;;;;;5043439;28;20039;-75
2022/08/28 14:19:19;;;;;;;1.77;0.85;;;;;;;;;;5050102;28;20033;-75
2022/08/28 14:21:45;;;;;;;2.80;0.80;;;;;;;;;;5042603;28;20032;-81
2022/08/28 14:24:10;;;;;;;2.58;0.70;;;;;;;;;;5048090;28;20025;-75
2022/08/28 14:26:36;;;;;;;2.17;0.75;;;;;;;;;;5051017;28;20076;-81
2022/08/28 14:29:04;;;;;;;2.35;0.85;;;;;;;;;;5052636;28;20112;-81
2022/08/28 14:31:31;;;;;;;3.53;0.80;;;;;;;;;;5047004;28;20389;-81
2022/08/28 14:33:57;;;;;;;2.22;0.80;;;;;;;;;;5052240;28;20045;-76
2022/08/28 14:36:25;;;;;;;6.25;1.10;;;;;;;;;;5042888;28;20031;-81
2022/08/28 14:38:53;;;;;;;1.83;0.90;;;;;;;;;;5052148;28;20032;-81
2022/08/28 14:41:19;;;;;;;3.22;0.73;;;;;;;;;;5052117;28;20099;-80
2022/08/28 14:43:46;;;;;;;3.38;0.90;;;;;;;;;;5052905;28;20104;-80
2022/08/28 14:46:41;;;;;;;1.80;0.82;;;;;;;;;;5047040;28;20038;-75
2022/08/28 14:49:09;;;;;;;1.63;0.70;;;;;;;;;;5040607;28;20029;-80
2022/08/28 14:51:37;;;;;;;2.65;0.80;;;;;;;;;;5050561;28;20469;-81
2022/08/28 14:54:03;;;;;;;1.88;0.80;;;;;;;;;;5045656;28;20163;-81
2022/08/28 14:56:30;;;;;;;2.63;0.73;;;;;;;;;;5053184;28;20106;-76
2022/08/28 14:58:57;;;;;;;1.30;0.70;;;;;;;;;;5052022;28;20029;-81
2022/08/28 15:01:29;;;;;;;2.15;0.90;;;;;;;;;;5052662;28;20028;-81
2022/08/28 15:03:56;;;;;;;1.65;0.70;;;;;;;;;;5035572;28;20028;-76
2022/08/28 15:06:23;;;;;;;2.30;0.80;;;;;;;;;;5049880;28;20033;-75
2022/08/28 15:08:48;;;;;;;2.85;0.90;;;;;;;;;;5053154;28;20033;-76
2022/08/28 15:11:17;;;;;;;1.65;0.80;;;;;;;;;;5050450;28;20025;-81
2022/08/28 15:13:44;;;;;;;3.65;1.10;;;;;;;;;;5051344;28;20440;-80
2022/08/28 15:16:14;;;;;;;2.45;1.00;;;;;;;;;;5044233;28;20040;-75